AUA706 LRIA-LOWW
Flight info
| Callsign | AUA706 |
|---|---|
| Flight time | 1h 12m |
| Altitude | 38000 |
| Route | ARPIG2B ARPIG P133 TOMUC DCT HUMOR DCT UCJOL DCT IZDUW DCT BALUX DCT TORNO DCT NATEX NATEX2W |
| Aircraft | A320/M-SDE3FGHIRWY/LB1 |
Departure
| Time | 2026-04-20 18:38 |
|---|---|
| Airport | Iaşi International Airport (LRIA) |
Arrival
| Time | 2026-04-20 19:50 |
|---|---|
| Airport | Vienna International Airport (LOWW) |
| Time | Latitude | Longitude | Altitude | Speed | Heading |
|---|---|---|---|---|---|
| 2026-04-20 18:09 | 47.17492 | 27.62008 | 367 ft | 0 kts | 274° |
| 2026-04-20 18:14 | 47.17492 | 27.62009 | 367 ft | 0 kts | 274° |
| 2026-04-20 18:31 | 47.17491 | 27.62034 | 364 ft | 4 kts | 261° |
| 2026-04-20 18:31 | 47.17501 | 27.62067 | 365 ft | 4 kts | 214° |
| 2026-04-20 18:31 | 47.17523 | 27.62074 | 364 ft | 4 kts | 159° |
| 2026-04-20 18:31 | 47.17535 | 27.62066 | 364 ft | 1 kts | 149° |
| 2026-04-20 18:32 | 47.17536 | 27.62065 | 364 ft | 0 kts | 149° |
| 2026-04-20 18:35 | 47.17528 | 27.62072 | 364 ft | 6 kts | 149° |
| 2026-04-20 18:35 | 47.17451 | 27.62140 | 364 ft | 15 kts | 148° |
| 2026-04-20 18:35 | 47.17372 | 27.62212 | 364 ft | 12 kts | 149° |
| 2026-04-20 18:35 | 47.17308 | 27.62266 | 363 ft | 9 kts | 150° |
| 2026-04-20 18:36 | 47.17270 | 27.62391 | 356 ft | 21 kts | 67° |
| 2026-04-20 18:36 | 47.17348 | 27.62586 | 348 ft | 25 kts | 59° |
| 2026-04-20 18:36 | 47.17286 | 27.62747 | 339 ft | 21 kts | 146° |
| 2026-04-20 18:36 | 47.17181 | 27.62889 | 328 ft | 20 kts | 121° |
| 2026-04-20 18:37 | 47.17130 | 27.62888 | 326 ft | 7 kts | 313° |
| 2026-04-20 18:37 | 47.17221 | 27.62806 | 328 ft | 42 kts | 330° |
| 2026-04-20 18:37 | 47.17676 | 27.62406 | 353 ft | 107 kts | 328° |
| 2026-04-20 18:37 | 47.18444 | 27.61732 | 606 ft | 137 kts | 329° |
| 2026-04-20 18:38 | 47.19260 | 27.61021 | 1319 ft | 139 kts | 332° |
| 2026-04-20 18:38 | 47.20115 | 27.60348 | 2059 ft | 141 kts | 338° |
| 2026-04-20 18:38 | 47.21058 | 27.59667 | 2554 ft | 163 kts | 338° |
| 2026-04-20 18:38 | 47.22145 | 27.58878 | 3138 ft | 186 kts | 336° |
| 2026-04-20 18:39 | 47.23366 | 27.57958 | 3679 ft | 210 kts | 331° |
| 2026-04-20 18:39 | 47.24398 | 27.56296 | 4424 ft | 231 kts | 303° |
| 2026-04-20 18:39 | 47.25148 | 27.54170 | 5512 ft | 239 kts | 298° |
| 2026-04-20 18:39 | 47.25875 | 27.51949 | 6631 ft | 240 kts | 298° |
| 2026-04-20 18:40 | 47.26598 | 27.49745 | 7790 ft | 240 kts | 298° |
| 2026-04-20 18:40 | 47.27347 | 27.47527 | 8856 ft | 244 kts | 298° |
| 2026-04-20 18:40 | 47.28129 | 27.45280 | 9901 ft | 249 kts | 298° |
| 2026-04-20 18:40 | 47.28938 | 27.43003 | 10875 ft | 253 kts | 298° |
| 2026-04-20 18:41 | 47.29770 | 27.40691 | 11846 ft | 258 kts | 298° |
| 2026-04-20 18:41 | 47.30620 | 27.38337 | 12862 ft | 262 kts | 298° |
| 2026-04-20 18:41 | 47.31485 | 27.35948 | 13898 ft | 267 kts | 298° |
| 2026-04-20 18:41 | 47.32370 | 27.33515 | 14844 ft | 271 kts | 297° |
| 2026-04-20 18:42 | 47.33271 | 27.31046 | 15796 ft | 276 kts | 297° |
| 2026-04-20 18:42 | 47.34195 | 27.28510 | 16585 ft | 290 kts | 296° |
| 2026-04-20 18:42 | 47.35188 | 27.25781 | 17038 ft | 315 kts | 296° |
| 2026-04-20 18:42 | 47.36260 | 27.22827 | 17431 ft | 339 kts | 296° |
| 2026-04-20 18:43 | 47.37410 | 27.19656 | 17757 ft | 362 kts | 296° |
| 2026-04-20 18:43 | 47.38623 | 27.16309 | 18291 ft | 376 kts | 296° |
| 2026-04-20 18:43 | 47.39869 | 27.12870 | 18902 ft | 383 kts | 296° |
| 2026-04-20 18:43 | 47.41133 | 27.09381 | 19584 ft | 387 kts | 296° |
| 2026-04-20 18:44 | 47.42410 | 27.05859 | 20264 ft | 391 kts | 296° |
| 2026-04-20 18:44 | 47.43691 | 27.02303 | 20905 ft | 393 kts | 295° |
| 2026-04-20 18:44 | 47.44976 | 26.98719 | 21520 ft | 396 kts | 295° |
| 2026-04-20 18:44 | 47.46271 | 26.95109 | 22124 ft | 399 kts | 295° |
| 2026-04-20 18:45 | 47.47572 | 26.91483 | 22698 ft | 401 kts | 295° |
| 2026-04-20 18:45 | 47.48882 | 26.87824 | 23229 ft | 404 kts | 294° |
| 2026-04-20 18:45 | 47.49979 | 26.84013 | 23712 ft | 403 kts | 285° |
| 2026-04-20 18:45 | 47.50628 | 26.79988 | 24141 ft | 403 kts | 276° |
| 2026-04-20 18:46 | 47.50829 | 26.75854 | 24518 ft | 404 kts | 269° |
| 2026-04-20 18:46 | 47.50865 | 26.71742 | 24914 ft | 406 kts | 269° |
| 2026-04-20 18:46 | 47.50905 | 26.67553 | 25320 ft | 408 kts | 269° |
| 2026-04-20 18:46 | 47.50950 | 26.63346 | 25758 ft | 410 kts | 269° |
| 2026-04-20 18:47 | 47.50997 | 26.59121 | 26182 ft | 412 kts | 269° |
| 2026-04-20 18:47 | 47.51042 | 26.54873 | 26589 ft | 414 kts | 268° |
| 2026-04-20 18:47 | 47.51087 | 26.50604 | 26981 ft | 416 kts | 268° |
| 2026-04-20 18:47 | 47.51129 | 26.46319 | 27372 ft | 418 kts | 268° |
| 2026-04-20 18:48 | 47.51167 | 26.42012 | 27727 ft | 420 kts | 269° |
| 2026-04-20 18:48 | 47.51201 | 26.37683 | 28077 ft | 422 kts | 268° |
| 2026-04-20 18:48 | 47.51231 | 26.33331 | 28420 ft | 425 kts | 269° |
| 2026-04-20 18:48 | 47.51260 | 26.28948 | 28732 ft | 428 kts | 269° |
| 2026-04-20 18:49 | 47.51290 | 26.24544 | 29079 ft | 430 kts | 269° |
| 2026-04-20 18:49 | 47.51318 | 26.20111 | 29403 ft | 432 kts | 269° |
| 2026-04-20 18:49 | 47.51344 | 26.15661 | 29779 ft | 433 kts | 269° |
| 2026-04-20 18:49 | 47.51368 | 26.11218 | 30228 ft | 431 kts | 269° |
| 2026-04-20 18:50 | 47.51392 | 26.06787 | 30619 ft | 430 kts | 269° |
| 2026-04-20 18:50 | 47.51406 | 26.03857 | 30880 ft | 429 kts | 269° |
| 2026-04-20 18:50 | 47.51425 | 25.99446 | 31266 ft | 429 kts | 269° |
| 2026-04-20 18:50 | 47.51443 | 25.95043 | 31648 ft | 428 kts | 269° |
| 2026-04-20 18:51 | 47.51459 | 25.90649 | 32025 ft | 427 kts | 269° |
| 2026-04-20 18:51 | 47.51475 | 25.86258 | 32398 ft | 427 kts | 270° |
| 2026-04-20 18:51 | 47.51476 | 25.81865 | 32739 ft | 427 kts | 269° |
| 2026-04-20 18:51 | 47.51460 | 25.77472 | 33111 ft | 427 kts | 269° |
| 2026-04-20 18:52 | 47.51433 | 25.73094 | 33484 ft | 426 kts | 269° |
| 2026-04-20 18:52 | 47.51400 | 25.68713 | 33881 ft | 426 kts | 269° |
| 2026-04-20 18:52 | 47.51364 | 25.64339 | 34219 ft | 425 kts | 269° |
| 2026-04-20 18:52 | 47.51328 | 25.59968 | 34521 ft | 425 kts | 269° |
| 2026-04-20 18:53 | 47.51295 | 25.55598 | 34820 ft | 425 kts | 269° |
| 2026-04-20 18:53 | 47.51264 | 25.51225 | 35103 ft | 425 kts | 269° |
| 2026-04-20 18:53 | 47.51230 | 25.46852 | 35373 ft | 425 kts | 270° |
| 2026-04-20 18:53 | 47.51197 | 25.42481 | 35654 ft | 425 kts | 270° |
| 2026-04-20 18:54 | 47.51164 | 25.38110 | 35922 ft | 425 kts | 270° |
| 2026-04-20 18:54 | 47.51127 | 25.33738 | 36199 ft | 425 kts | 269° |
| 2026-04-20 18:54 | 47.51085 | 25.29367 | 36453 ft | 425 kts | 269° |
| 2026-04-20 18:54 | 47.51039 | 25.24996 | 36710 ft | 425 kts | 269° |
| 2026-04-20 18:55 | 47.50992 | 25.20634 | 36969 ft | 425 kts | 269° |
| 2026-04-20 18:55 | 47.50946 | 25.16263 | 37209 ft | 425 kts | 269° |
| 2026-04-20 18:55 | 47.50902 | 25.11889 | 37445 ft | 425 kts | 269° |
| 2026-04-20 18:55 | 47.50857 | 25.07518 | 37691 ft | 425 kts | 269° |
| 2026-04-20 18:56 | 47.50807 | 25.03144 | 37913 ft | 426 kts | 269° |
| 2026-04-20 18:56 | 47.50752 | 24.98742 | 37971 ft | 430 kts | 269° |
| 2026-04-20 18:56 | 47.50633 | 24.89841 | 37964 ft | 441 kts | 269° |
| 2026-04-20 18:57 | 47.50345 | 24.80677 | 37962 ft | 451 kts | 266° |
| 2026-04-20 18:57 | 47.49896 | 24.71428 | 37948 ft | 448 kts | 266° |
| 2026-04-20 18:58 | 47.49454 | 24.62280 | 37945 ft | 445 kts | 266° |
| 2026-04-20 18:58 | 47.49050 | 24.53145 | 37933 ft | 445 kts | 267° |
| 2026-04-20 18:59 | 47.48646 | 24.44010 | 37942 ft | 446 kts | 267° |
| 2026-04-20 18:59 | 47.48235 | 24.34863 | 37935 ft | 446 kts | 267° |
| 2026-04-20 19:00 | 47.47810 | 24.25710 | 37939 ft | 446 kts | 266° |
| 2026-04-20 19:00 | 47.47367 | 24.16552 | 37941 ft | 447 kts | 266° |
| 2026-04-20 19:01 | 47.46921 | 24.07400 | 37940 ft | 447 kts | 266° |
| 2026-04-20 19:01 | 47.46479 | 23.98238 | 37938 ft | 447 kts | 266° |
| 2026-04-20 19:02 | 47.46024 | 23.89074 | 37935 ft | 447 kts | 266° |
| 2026-04-20 19:02 | 47.45556 | 23.79904 | 37936 ft | 448 kts | 266° |
| 2026-04-20 19:03 | 47.45079 | 23.70729 | 37940 ft | 448 kts | 266° |
| 2026-04-20 19:03 | 47.44603 | 23.61568 | 37954 ft | 447 kts | 266° |
| 2026-04-20 19:04 | 47.44122 | 23.52428 | 37969 ft | 447 kts | 266° |
| 2026-04-20 19:04 | 47.43627 | 23.43287 | 37951 ft | 446 kts | 266° |
| 2026-04-20 19:05 | 47.43125 | 23.34159 | 37952 ft | 446 kts | 266° |
| 2026-04-20 19:05 | 47.42621 | 23.25037 | 37952 ft | 445 kts | 266° |
| 2026-04-20 19:06 | 47.42108 | 23.15922 | 37950 ft | 445 kts | 266° |
| 2026-04-20 19:06 | 47.41587 | 23.06813 | 37953 ft | 445 kts | 266° |
| 2026-04-20 19:07 | 47.41057 | 22.97702 | 37953 ft | 446 kts | 266° |
| 2026-04-20 19:07 | 47.40523 | 22.88582 | 37928 ft | 446 kts | 266° |
| 2026-04-20 19:08 | 47.39708 | 22.74901 | 37948 ft | 447 kts | 266° |
| 2026-04-20 19:09 | 47.39150 | 22.65769 | 37952 ft | 447 kts | 266° |
| 2026-04-20 19:09 | 47.38584 | 22.56635 | 37951 ft | 447 kts | 266° |
| 2026-04-20 19:10 | 47.38017 | 22.47557 | 37950 ft | 447 kts | 266° |
| 2026-04-20 19:10 | 47.37442 | 22.38411 | 37956 ft | 448 kts | 266° |
| 2026-04-20 19:11 | 47.36859 | 22.29267 | 37958 ft | 448 kts | 266° |
| 2026-04-20 19:11 | 47.36267 | 22.20120 | 37960 ft | 448 kts | 266° |
| 2026-04-20 19:12 | 47.35671 | 22.10968 | 37976 ft | 448 kts | 266° |
| 2026-04-20 19:12 | 47.35065 | 22.01809 | 37972 ft | 448 kts | 266° |
| 2026-04-20 19:13 | 47.34459 | 21.92669 | 37979 ft | 447 kts | 269° |
| 2026-04-20 19:13 | 47.34507 | 21.83532 | 37986 ft | 446 kts | 272° |
| 2026-04-20 19:14 | 47.34603 | 21.74388 | 37987 ft | 446 kts | 272° |
| 2026-04-20 19:14 | 47.34693 | 21.65247 | 37986 ft | 446 kts | 272° |
| 2026-04-20 19:15 | 47.34769 | 21.56176 | 37980 ft | 445 kts | 272° |
| 2026-04-20 19:15 | 47.34833 | 21.47059 | 37980 ft | 444 kts | 272° |
| 2026-04-20 19:16 | 47.35119 | 21.37986 | 37981 ft | 442 kts | 281° |
| 2026-04-20 19:16 | 47.36179 | 21.29057 | 37978 ft | 442 kts | 281° |
| 2026-04-20 19:17 | 47.37235 | 21.20125 | 37981 ft | 442 kts | 280° |
| 2026-04-20 19:17 | 47.38291 | 21.11189 | 37979 ft | 442 kts | 280° |
| 2026-04-20 19:18 | 47.39330 | 21.02248 | 37980 ft | 442 kts | 280° |
| 2026-04-20 19:18 | 47.40376 | 20.93297 | 37980 ft | 443 kts | 280° |
| 2026-04-20 19:19 | 47.41415 | 20.84336 | 37983 ft | 443 kts | 280° |
| 2026-04-20 19:19 | 47.42441 | 20.75369 | 37984 ft | 443 kts | 280° |
| 2026-04-20 19:20 | 47.43457 | 20.66393 | 37987 ft | 443 kts | 280° |
| 2026-04-20 19:20 | 47.44470 | 20.57418 | 37992 ft | 443 kts | 280° |
| 2026-04-20 19:21 | 47.45473 | 20.48446 | 37988 ft | 443 kts | 280° |
| 2026-04-20 19:21 | 47.46464 | 20.39467 | 37983 ft | 443 kts | 280° |
| 2026-04-20 19:22 | 47.47452 | 20.30493 | 37978 ft | 442 kts | 280° |
| 2026-04-20 19:22 | 47.48437 | 20.21527 | 37991 ft | 442 kts | 280° |
| 2026-04-20 19:23 | 47.49412 | 20.12570 | 37995 ft | 442 kts | 280° |
| 2026-04-20 19:23 | 47.50383 | 20.03600 | 37999 ft | 442 kts | 280° |
| 2026-04-20 19:24 | 47.51346 | 19.94623 | 37994 ft | 442 kts | 280° |
| 2026-04-20 19:24 | 47.52302 | 19.85632 | 37989 ft | 443 kts | 280° |
| 2026-04-20 19:25 | 47.53251 | 19.76612 | 37995 ft | 444 kts | 280° |
| 2026-04-20 19:25 | 47.54186 | 19.67595 | 38004 ft | 444 kts | 280° |
| 2026-04-20 19:26 | 47.55126 | 19.58565 | 38010 ft | 444 kts | 280° |
| 2026-04-20 19:26 | 47.56063 | 19.49534 | 38018 ft | 443 kts | 280° |
| 2026-04-20 19:27 | 47.56982 | 19.40529 | 37998 ft | 438 kts | 280° |
| 2026-04-20 19:27 | 47.57427 | 19.36099 | 37636 ft | 433 kts | 280° |
| 2026-04-20 19:27 | 47.57865 | 19.31720 | 37112 ft | 427 kts | 280° |
| 2026-04-20 19:27 | 47.58298 | 19.27399 | 36601 ft | 421 kts | 280° |
| 2026-04-20 19:28 | 47.58725 | 19.23134 | 36102 ft | 416 kts | 280° |
| 2026-04-20 19:28 | 47.59143 | 19.18924 | 35615 ft | 411 kts | 280° |
| 2026-04-20 19:28 | 47.59559 | 19.14726 | 35140 ft | 411 kts | 279° |
| 2026-04-20 19:28 | 47.59972 | 19.10555 | 34670 ft | 409 kts | 279° |
| 2026-04-20 19:29 | 47.60384 | 19.06401 | 34171 ft | 405 kts | 279° |
| 2026-04-20 19:29 | 47.60788 | 19.02301 | 33602 ft | 399 kts | 279° |
| 2026-04-20 19:29 | 47.61179 | 18.98314 | 33016 ft | 393 kts | 279° |
| 2026-04-20 19:29 | 47.61570 | 18.94308 | 32428 ft | 393 kts | 279° |
| 2026-04-20 19:30 | 47.61962 | 18.90290 | 31870 ft | 394 kts | 279° |
| 2026-04-20 19:30 | 47.62353 | 18.86285 | 31306 ft | 394 kts | 279° |
| 2026-04-20 19:30 | 47.62742 | 18.82278 | 30760 ft | 391 kts | 279° |
| 2026-04-20 19:30 | 47.63124 | 18.78287 | 30223 ft | 392 kts | 279° |
| 2026-04-20 19:31 | 47.63505 | 18.74281 | 29597 ft | 391 kts | 279° |
| 2026-04-20 19:31 | 47.63883 | 18.70301 | 28966 ft | 390 kts | 279° |
| 2026-04-20 19:31 | 47.64264 | 18.66304 | 28343 ft | 393 kts | 279° |
| 2026-04-20 19:31 | 47.64648 | 18.62267 | 27717 ft | 399 kts | 279° |
| 2026-04-20 19:32 | 47.65037 | 18.58179 | 27100 ft | 401 kts | 279° |
| 2026-04-20 19:32 | 47.65422 | 18.54090 | 26499 ft | 400 kts | 279° |
| 2026-04-20 19:32 | 47.65807 | 18.49991 | 25909 ft | 406 kts | 278° |
| 2026-04-20 19:32 | 47.66201 | 18.45792 | 25325 ft | 414 kts | 278° |
| 2026-04-20 19:33 | 47.66597 | 18.41556 | 24744 ft | 415 kts | 278° |
| 2026-04-20 19:33 | 47.66990 | 18.37317 | 24197 ft | 414 kts | 278° |
| 2026-04-20 19:33 | 47.67379 | 18.33085 | 23654 ft | 414 kts | 278° |
| 2026-04-20 19:33 | 47.67764 | 18.28863 | 22995 ft | 412 kts | 278° |
| 2026-04-20 19:34 | 47.68144 | 18.24656 | 22379 ft | 412 kts | 278° |
| 2026-04-20 19:34 | 47.68530 | 18.20403 | 21758 ft | 418 kts | 278° |
| 2026-04-20 19:34 | 47.68919 | 18.16127 | 21167 ft | 418 kts | 278° |
| 2026-04-20 19:34 | 47.69300 | 18.11915 | 20597 ft | 416 kts | 278° |
| 2026-04-20 19:35 | 47.69688 | 18.07617 | 20026 ft | 411 kts | 278° |
| 2026-04-20 19:35 | 47.70062 | 18.03438 | 19542 ft | 408 kts | 278° |
| 2026-04-20 19:35 | 47.70433 | 17.99273 | 19049 ft | 406 kts | 278° |
| 2026-04-20 19:35 | 47.70800 | 17.95125 | 18558 ft | 405 kts | 278° |
| 2026-04-20 19:36 | 47.71164 | 17.90990 | 18042 ft | 403 kts | 278° |
| 2026-04-20 19:36 | 47.71520 | 17.86935 | 17486 ft | 400 kts | 278° |
| 2026-04-20 19:36 | 47.71877 | 17.82853 | 16986 ft | 397 kts | 278° |
| 2026-04-20 19:36 | 47.72231 | 17.78792 | 16520 ft | 395 kts | 278° |
| 2026-04-20 19:37 | 47.72583 | 17.74757 | 16049 ft | 393 kts | 278° |
| 2026-04-20 19:37 | 47.72949 | 17.70747 | 15574 ft | 391 kts | 281° |
| 2026-04-20 19:37 | 47.73796 | 17.66947 | 15078 ft | 388 kts | 295° |
| 2026-04-20 19:37 | 47.75013 | 17.63393 | 14568 ft | 386 kts | 296° |
| 2026-04-20 19:38 | 47.76237 | 17.59857 | 14077 ft | 384 kts | 296° |
| 2026-04-20 19:38 | 47.77460 | 17.56343 | 13559 ft | 381 kts | 297° |
| 2026-04-20 19:38 | 47.78675 | 17.52853 | 13014 ft | 379 kts | 297° |
| 2026-04-20 19:38 | 47.79491 | 17.50506 | 12649 ft | 377 kts | 297° |
| 2026-04-20 19:39 | 47.80686 | 17.47054 | 12120 ft | 374 kts | 296° |
| 2026-04-20 19:39 | 47.81851 | 17.43670 | 11605 ft | 371 kts | 296° |
| 2026-04-20 19:39 | 47.83013 | 17.40285 | 11153 ft | 361 kts | 296° |
| 2026-04-20 19:39 | 47.84151 | 17.36966 | 10739 ft | 349 kts | 296° |
| 2026-04-20 19:40 | 47.85217 | 17.33855 | 10383 ft | 335 kts | 296° |
| 2026-04-20 19:40 | 47.86233 | 17.30886 | 10030 ft | 309 kts | 296° |
| 2026-04-20 19:40 | 47.87172 | 17.28139 | 9636 ft | 287 kts | 297° |
| 2026-04-20 19:40 | 47.88047 | 17.25568 | 9233 ft | 270 kts | 297° |
| 2026-04-20 19:41 | 47.88879 | 17.23124 | 8835 ft | 261 kts | 297° |
| 2026-04-20 19:41 | 47.89699 | 17.20724 | 8438 ft | 259 kts | 297° |
| 2026-04-20 19:41 | 47.90518 | 17.18327 | 8049 ft | 260 kts | 297° |
| 2026-04-20 19:41 | 47.91334 | 17.15938 | 7669 ft | 258 kts | 297° |
| 2026-04-20 19:42 | 47.92150 | 17.13553 | 7317 ft | 258 kts | 298° |
| 2026-04-20 19:42 | 47.92964 | 17.11167 | 6965 ft | 258 kts | 298° |
| 2026-04-20 19:42 | 47.93774 | 17.08779 | 6608 ft | 258 kts | 298° |
| 2026-04-20 19:42 | 47.94582 | 17.06392 | 6253 ft | 257 kts | 298° |
| 2026-04-20 19:43 | 47.95115 | 17.04818 | 6017 ft | 257 kts | 298° |
| 2026-04-20 19:43 | 47.96277 | 17.01717 | 5516 ft | 255 kts | 302° |
| 2026-04-20 19:43 | 47.97137 | 16.99402 | 5134 ft | 255 kts | 298° |
| 2026-04-20 19:43 | 47.97928 | 16.97037 | 4774 ft | 254 kts | 297° |
| 2026-04-20 19:44 | 47.98705 | 16.94673 | 4435 ft | 253 kts | 298° |
| 2026-04-20 19:44 | 47.99482 | 16.92320 | 4103 ft | 252 kts | 298° |
| 2026-04-20 19:44 | 48.00258 | 16.89974 | 3774 ft | 252 kts | 298° |
| 2026-04-20 19:44 | 48.01031 | 16.87635 | 3502 ft | 251 kts | 298° |
| 2026-04-20 19:45 | 48.01801 | 16.85303 | 3264 ft | 250 kts | 298° |
| 2026-04-20 19:45 | 48.02567 | 16.82981 | 3070 ft | 249 kts | 298° |
| 2026-04-20 19:45 | 48.03326 | 16.80677 | 3014 ft | 242 kts | 298° |
| 2026-04-20 19:45 | 48.04037 | 16.78512 | 3024 ft | 223 kts | 298° |
| 2026-04-20 19:46 | 48.04696 | 16.76509 | 3029 ft | 207 kts | 298° |
| 2026-04-20 19:46 | 48.05309 | 16.74643 | 3032 ft | 192 kts | 298° |
| 2026-04-20 19:46 | 48.05873 | 16.72928 | 2888 ft | 176 kts | 298° |
| 2026-04-20 19:46 | 48.06386 | 16.71364 | 2685 ft | 162 kts | 299° |
| 2026-04-20 19:47 | 48.06874 | 16.69878 | 2475 ft | 157 kts | 299° |
| 2026-04-20 19:47 | 48.07351 | 16.68426 | 2273 ft | 155 kts | 298° |
| 2026-04-20 19:47 | 48.07821 | 16.66991 | 2059 ft | 153 kts | 298° |
| 2026-04-20 19:47 | 48.08277 | 16.65598 | 1849 ft | 141 kts | 298° |
| 2026-04-20 19:48 | 48.08693 | 16.64326 | 1666 ft | 132 kts | 298° |
| 2026-04-20 19:48 | 48.09093 | 16.63103 | 1490 ft | 130 kts | 300° |
| 2026-04-20 19:48 | 48.09495 | 16.61878 | 1304 ft | 132 kts | 298° |
| 2026-04-20 19:48 | 48.09893 | 16.60659 | 1117 ft | 132 kts | 298° |
| 2026-04-20 19:49 | 48.10298 | 16.59421 | 939 ft | 134 kts | 297° |
| 2026-04-20 19:49 | 48.10705 | 16.58172 | 733 ft | 134 kts | 298° |
| 2026-04-20 19:49 | 48.11106 | 16.56952 | 633 ft | 124 kts | 299° |
| 2026-04-20 19:49 | 48.11428 | 16.55958 | 615 ft | 84 kts | 295° |
| 2026-04-20 19:50 | 48.11588 | 16.55485 | 622 ft | 33 kts | 301° |
| 2026-04-20 19:50 | 48.11715 | 16.55269 | 616 ft | 18 kts | 315° |
| 2026-04-20 19:50 | 48.11753 | 16.55212 | 618 ft | 6 kts | 316° |
| 2026-04-20 19:50 | 48.11789 | 16.55168 | 618 ft | 11 kts | 325° |
| 2026-04-20 19:51 | 48.11872 | 16.55159 | 624 ft | 12 kts | 40° |
| 2026-04-20 19:51 | 48.11860 | 16.55275 | 617 ft | 12 kts | 116° |
| 2026-04-20 19:51 | 48.11822 | 16.55377 | 615 ft | 11 kts | 116° |
| 2026-04-20 19:51 | 48.11793 | 16.55474 | 612 ft | 10 kts | 109° |
| 2026-04-20 19:52 | 48.11756 | 16.55596 | 621 ft | 17 kts | 116° |
| 2026-04-20 19:52 | 48.11691 | 16.55800 | 613 ft | 25 kts | 115° |
| 2026-04-20 19:52 | 48.11608 | 16.56044 | 623 ft | 25 kts | 116° |
| 2026-04-20 19:52 | 48.11631 | 16.56211 | 623 ft | 18 kts | 40° |
| 2026-04-20 19:53 | 48.11743 | 16.56308 | 616 ft | 17 kts | 38° |
| 2026-04-20 19:53 | 48.11723 | 16.56477 | 622 ft | 19 kts | 116° |
| 2026-04-20 19:53 | 48.11662 | 16.56663 | 614 ft | 20 kts | 116° |
| 2026-04-20 19:53 | 48.11629 | 16.56793 | 617 ft | 6 kts | 71° |
| 2026-04-20 19:54 | 48.11664 | 16.56825 | 610 ft | 6 kts | 26° |
| 2026-04-20 19:54 | 48.11689 | 16.56843 | 622 ft | 1 kts | 26° |
| 2026-04-20 19:54 | 48.11694 | 16.56847 | 619 ft | 0 kts | 26° |
| 2026-04-20 19:54 | 48.11695 | 16.56848 | 619 ft | 0 kts | 26° |